createdAt,value
2022-08-25T00:01:30.364Z,0.93
2022-08-25T00:03:58.006Z,1.13
2022-08-25T00:06:23.989Z,1.00
2022-08-25T00:08:50.039Z,1.00
2022-08-25T00:11:18.660Z,0.90
2022-08-25T00:13:45.629Z,1.10
2022-08-25T00:16:11.846Z,1.08
2022-08-25T00:18:38.735Z,0.80
2022-08-25T00:21:05.248Z,1.15
2022-08-25T00:23:30.720Z,0.82
2022-08-25T00:25:56.198Z,1.10
2022-08-25T00:28:21.697Z,1.20
2022-08-25T00:30:48.755Z,0.80
2022-08-25T00:33:14.526Z,1.10
2022-08-25T00:35:41.043Z,0.82
2022-08-25T00:38:06.791Z,1.13
2022-08-25T00:40:32.557Z,0.93
2022-08-25T00:42:58.172Z,0.98
2022-08-25T00:45:23.952Z,1.10
2022-08-25T00:47:49.640Z,0.98
2022-08-25T00:50:15.200Z,0.85
2022-08-25T00:52:42.440Z,0.77
2022-08-25T00:55:10.568Z,1.20
2022-08-25T00:57:39.552Z,0.98
2022-08-25T01:00:08.258Z,0.90
2022-08-25T01:02:33.925Z,1.17
2022-08-25T01:04:59.411Z,0.98
2022-08-25T01:07:24.941Z,0.90
2022-08-25T01:09:51.691Z,0.88
2022-08-25T01:12:17.255Z,0.90
2022-08-25T01:14:45.726Z,1.00
2022-08-25T01:17:11.561Z,0.80
2022-08-25T01:19:37.034Z,1.02
2022-08-25T01:22:02.975Z,1.02
2022-08-25T01:24:34.327Z,1.02
2022-08-25T01:27:00.535Z,0.90
2022-08-25T01:29:26.396Z,0.93
2022-08-25T01:31:56.502Z,0.80
2022-08-25T01:34:22.537Z,0.85
2022-08-25T01:36:48.190Z,0.75
2022-08-25T01:39:14.063Z,1.00
2022-08-25T01:44:17.515Z,0.80
2022-08-25T01:46:43.421Z,1.00
2022-08-25T01:49:09.775Z,1.00
2022-08-25T01:51:41.707Z,0.90
2022-08-25T01:54:07.193Z,0.80
2022-08-25T01:56:32.665Z,1.00
2022-08-25T01:58:58.328Z,1.00
2022-08-25T02:01:23.878Z,0.93
2022-08-25T02:03:52.190Z,0.90
2022-08-25T02:06:19.683Z,0.98
2022-08-25T02:08:45.823Z,0.90
2022-08-25T02:11:12.606Z,0.90
2022-08-25T02:13:39.576Z,0.90
2022-08-25T02:16:05.986Z,0.90
2022-08-25T02:18:31.647Z,1.00
2022-08-25T02:20:57.131Z,1.00
2022-08-25T02:23:22.610Z,0.95
2022-08-25T02:25:48.084Z,0.95
2022-08-25T02:28:13.584Z,0.82
2022-08-25T02:30:39.862Z,0.90
2022-08-25T02:33:05.650Z,0.90
2022-08-25T02:35:31.576Z,0.80
2022-08-25T02:37:57.190Z,0.90
2022-08-25T02:40:22.768Z,0.80
2022-08-25T02:42:49.092Z,1.00
2022-08-25T02:45:15.135Z,0.82
2022-08-25T02:47:40.976Z,0.80
2022-08-25T02:50:06.959Z,0.70
2022-08-25T02:52:32.512Z,0.80
2022-08-25T02:54:58.002Z,0.90
2022-08-25T02:57:23.659Z,0.95
2022-08-25T02:59:50.712Z,1.02
2022-08-25T03:02:16.476Z,0.98
2022-08-25T03:04:42.273Z,0.88
2022-08-25T03:07:08.726Z,0.95
2022-08-25T03:09:38.279Z,0.70
2022-08-25T03:12:03.974Z,0.98
2022-08-25T03:14:29.524Z,1.05
2022-08-25T03:16:55.418Z,0.80
2022-08-25T03:19:21.051Z,0.90
2022-08-25T03:21:46.573Z,0.75
2022-08-25T03:24:12.059Z,0.80
2022-08-25T03:26:53.473Z,1.10
2022-08-25T03:29:19.879Z,0.98
2022-08-25T03:31:45.596Z,0.77
2022-08-25T03:34:12.487Z,1.00
2022-08-25T03:36:38.207Z,1.00
2022-08-25T03:39:04.263Z,0.73
2022-08-25T03:41:31.723Z,0.90
2022-08-25T03:43:57.778Z,0.80
2022-08-25T03:46:24.659Z,0.90
2022-08-25T03:48:50.390Z,1.00
2022-08-25T03:51:25.383Z,0.77
2022-08-25T03:53:52.333Z,0.82
2022-08-25T03:56:17.933Z,0.80
2022-08-25T03:58:43.827Z,0.82
2022-08-25T04:01:09.450Z,0.63
2022-08-25T04:03:35.251Z,1.08
2022-08-25T04:06:02.406Z,1.10
2022-08-25T04:08:27.889Z,0.82
2022-08-25T04:10:54.319Z,1.00
2022-08-25T04:13:19.886Z,0.82
2022-08-25T04:15:45.408Z,1.02
2022-08-25T04:18:10.875Z,0.90
2022-08-25T04:20:37.055Z,0.80
2022-08-25T04:23:02.734Z,0.65
2022-08-25T04:25:28.251Z,0.90
2022-08-25T04:27:54.412Z,0.90
2022-08-25T04:30:20.319Z,0.98
2022-08-25T04:32:47.454Z,0.80
2022-08-25T04:35:13.309Z,0.90
2022-08-25T04:37:38.807Z,0.80
2022-08-25T04:40:04.682Z,0.93
2022-08-25T04:42:30.200Z,0.98
2022-08-25T04:44:55.718Z,0.82
2022-08-25T04:47:21.407Z,0.80
2022-08-25T04:49:47.020Z,0.70
2022-08-25T04:52:13.164Z,0.80
2022-08-25T04:54:40.104Z,1.10
2022-08-25T04:57:05.993Z,0.95
2022-08-25T04:59:31.528Z,0.70
2022-08-25T05:02:01.199Z,0.80
2022-08-25T05:04:28.442Z,0.95
2022-08-25T05:06:55.080Z,0.80
2022-08-25T05:09:20.579Z,0.88
2022-08-25T05:11:47.364Z,0.95
2022-08-25T05:14:17.271Z,0.70
2022-08-25T05:16:42.806Z,0.90
2022-08-25T05:19:08.386Z,0.82
2022-08-25T05:21:34.007Z,0.75
2022-08-25T05:24:00.152Z,0.90
2022-08-25T05:26:27.209Z,0.88
2022-08-25T05:28:53.479Z,0.80
2022-08-25T05:31:19.821Z,0.70
2022-08-25T05:33:45.489Z,0.88
2022-08-25T05:36:11.977Z,0.85
2022-08-25T05:38:38.848Z,1.30
2022-08-25T05:41:06.246Z,0.93
2022-08-25T05:43:32.180Z,1.10
2022-08-25T05:45:58.384Z,1.48
2022-08-25T05:48:24.695Z,1.55
2022-08-25T05:50:52.344Z,2.00
2022-08-25T05:53:18.769Z,1.88
2022-08-25T05:55:45.051Z,2.38
2022-08-25T05:58:10.782Z,2.55
2022-08-25T06:00:40.177Z,2.30
2022-08-25T06:03:06.295Z,2.42
2022-08-25T06:05:31.868Z,2.38
2022-08-25T06:07:58.255Z,2.47
2022-08-25T06:10:24.390Z,2.30
2022-08-25T06:12:50.492Z,2.42
2022-08-25T06:15:17.461Z,2.38
2022-08-25T06:17:43.162Z,2.70
2022-08-25T06:20:10.015Z,2.60
2022-08-25T06:22:36.800Z,2.28
2022-08-25T06:25:03.495Z,2.25
2022-08-25T06:27:29.076Z,2.70
2022-08-25T06:29:56.033Z,2.70
2022-08-25T06:32:21.697Z,2.50
2022-08-25T06:34:47.151Z,2.55
2022-08-25T06:37:12.634Z,3.00
2022-08-25T06:39:38.170Z,2.65
2022-08-25T06:42:03.825Z,2.70
2022-08-25T06:44:29.586Z,2.40
2022-08-25T06:46:55.293Z,2.70
2022-08-25T06:49:20.924Z,3.00
2022-08-25T06:51:46.445Z,2.80
2022-08-25T06:54:12.051Z,3.00
2022-08-25T06:56:39.419Z,3.00
2022-08-25T06:59:05.616Z,2.85
2022-08-25T07:01:31.886Z,2.88
2022-08-25T07:03:58.884Z,2.75
2022-08-25T07:06:25.530Z,3.00
2022-08-25T07:08:51.003Z,2.72
2022-08-25T07:11:17.674Z,2.65
2022-08-25T07:13:43.794Z,3.03
2022-08-25T07:16:10.456Z,2.53
2022-08-25T07:18:36.070Z,2.85
2022-08-25T07:21:01.719Z,3.20
2022-08-25T07:23:27.541Z,3.05
2022-08-25T07:25:53.719Z,2.67
2022-08-25T07:28:20.194Z,2.60
2022-08-25T07:30:45.800Z,2.83
2022-08-25T07:33:17.405Z,2.78
2022-08-25T07:35:43.787Z,2.72
2022-08-25T07:38:10.227Z,2.78
2022-08-25T07:40:43.052Z,2.85
2022-08-25T07:43:09.469Z,2.60
2022-08-25T07:45:36.462Z,3.03
2022-08-25T07:48:13.357Z,2.90
2022-08-25T07:50:41.537Z,2.55
2022-08-25T07:53:08.458Z,2.72
2022-08-25T07:55:35.724Z,3.22
2022-08-25T07:58:03.412Z,2.47
2022-08-25T08:00:31.617Z,2.72
2022-08-25T08:02:57.684Z,2.60
2022-08-25T08:05:23.906Z,2.97
2022-08-25T08:07:49.599Z,2.60
2022-08-25T08:13:01.252Z,3.13
2022-08-25T08:15:28.400Z,3.60
2022-08-25T08:17:55.937Z,2.85
2022-08-25T08:20:23.810Z,2.67
2022-08-25T08:22:49.465Z,2.70
2022-08-25T08:25:18.735Z,3.05
2022-08-25T08:27:47.956Z,2.45
2022-08-25T08:30:13.797Z,2.40
2022-08-25T08:33:05.881Z,2.25
2022-08-25T08:35:24.939Z,2.50
2022-08-25T08:37:53.814Z,2.63
2022-08-25T08:40:20.092Z,2.63
2022-08-25T08:42:51.936Z,3.20
2022-08-25T08:45:23.625Z,2.85
2022-08-25T08:48:02.475Z,2.58
2022-08-25T08:50:48.716Z,2.53
2022-08-25T08:53:23.921Z,2.72
2022-08-25T08:55:53.090Z,2.92
2022-08-25T08:58:21.101Z,2.72
2022-08-25T09:00:53.912Z,2.75
2022-08-25T09:03:39.927Z,2.53
2022-08-25T09:06:09.041Z,2.95
2022-08-25T09:08:36.736Z,2.75
2022-08-25T09:11:22.871Z,2.33
2022-08-25T09:14:09.607Z,2.65
2022-08-25T09:16:54.884Z,2.65
2022-08-25T09:19:41.970Z,2.65
2022-08-25T09:22:33.702Z,2.72
2022-08-25T09:25:08.817Z,2.53
2022-08-25T09:27:40.483Z,2.70
2022-08-25T09:30:07.797Z,2.70
2022-08-25T09:32:38.930Z,2.53
2022-08-25T09:35:06.752Z,2.80
2022-08-25T09:37:32.354Z,3.00
2022-08-25T09:39:57.918Z,3.08
2022-08-25T09:42:43.919Z,2.60
2022-08-25T09:45:11.304Z,2.78
2022-08-25T09:47:42.149Z,2.60
2022-08-25T09:50:13.707Z,2.67
2022-08-25T09:52:45.103Z,2.63
2022-08-25T09:57:49.646Z,2.85
2022-08-25T10:00:21.925Z,2.22
2022-08-25T10:03:07.838Z,2.58
2022-08-25T10:05:35.814Z,2.55
2022-08-25T10:08:09.191Z,2.45
2022-08-25T10:10:37.506Z,2.70
2022-08-25T10:13:13.359Z,2.75
2022-08-25T10:15:38.948Z,2.55
2022-08-25T10:18:23.470Z,2.33
2022-08-25T10:21:09.088Z,2.58
2022-08-25T10:23:37.759Z,2.50
2022-08-25T10:26:09.448Z,2.47
2022-08-25T10:28:40.201Z,2.50
2022-08-25T10:31:11.505Z,2.70
2022-08-25T10:33:56.981Z,2.72
2022-08-25T10:36:29.226Z,2.53
2022-08-25T10:38:57.694Z,2.30
2022-08-25T10:41:29.484Z,2.10
2022-08-25T10:44:03.291Z,2.13
2022-08-25T10:49:00.975Z,2.75
2022-08-25T10:51:31.823Z,2.35
2022-08-25T10:54:03.351Z,2.47
2022-08-25T10:56:32.930Z,2.80
2022-08-25T10:59:09.262Z,2.40
2022-08-25T11:01:43.983Z,2.22
2022-08-25T11:04:29.065Z,2.55
2022-08-25T11:06:57.791Z,2.10
2022-08-25T11:09:27.695Z,2.17
2022-08-25T11:11:58.742Z,2.30
2022-08-25T11:14:34.732Z,2.20
2022-08-25T11:17:19.544Z,2.60
2022-08-25T11:19:48.275Z,2.13
2022-08-25T11:22:33.891Z,2.10
2022-08-25T11:25:19.164Z,2.20
2022-08-25T11:27:51.343Z,2.47
2022-08-25T11:30:17.589Z,2.22
2022-08-25T11:32:46.863Z,2.45
2022-08-25T11:35:13.858Z,2.22
2022-08-25T11:37:44.745Z,2.17
2022-08-25T11:40:16.791Z,2.00
2022-08-25T11:42:59.553Z,2.08
2022-08-25T11:45:35.928Z,2.42
2022-08-25T11:48:21.668Z,2.03
2022-08-25T11:51:07.083Z,2.05
2022-08-25T11:53:37.612Z,2.20
2022-08-25T11:56:06.118Z,2.20
2022-08-25T11:58:41.209Z,2.03
2022-08-25T12:01:09.403Z,2.33
2022-08-25T12:06:14.225Z,2.20
2022-08-25T12:08:59.633Z,1.92
2022-08-25T12:11:42.198Z,1.63
2022-08-25T12:14:15.342Z,2.15
2022-08-25T12:16:43.644Z,2.38
2022-08-25T12:19:29.247Z,2.08
2022-08-25T12:21:58.021Z,2.05
2022-08-25T12:24:48.053Z,2.00
2022-08-25T12:27:34.543Z,2.47
2022-08-25T12:30:05.132Z,2.00
2022-08-25T12:32:43.471Z,2.05
2022-08-25T12:35:26.018Z,2.00
2022-08-25T12:38:00.336Z,2.05
2022-08-25T12:40:30.868Z,1.80
2022-08-25T12:43:01.990Z,1.50
2022-08-25T12:45:32.837Z,1.80
2022-08-25T12:48:18.325Z,1.63
2022-08-25T12:50:47.292Z,1.63
2022-08-25T12:53:14.951Z,2.30
2022-08-25T12:55:45.615Z,1.70
2022-08-25T12:58:11.579Z,2.05
2022-08-25T13:00:51.234Z,2.03
2022-08-25T13:06:29.071Z,1.80
2022-08-25T13:09:03.703Z,1.58
2022-08-25T13:11:40.427Z,1.77
2022-08-25T13:14:16.942Z,1.88
2022-08-25T13:16:51.509Z,1.63
2022-08-25T13:19:18.375Z,1.75
2022-08-25T13:21:44.259Z,1.83
2022-08-25T13:24:21.317Z,1.90
2022-08-25T13:26:49.058Z,1.85
2022-08-25T13:29:18.775Z,2.20
2022-08-25T13:31:54.091Z,1.80
2022-08-25T13:34:21.918Z,1.85
2022-08-25T13:37:08.211Z,1.90
2022-08-25T13:39:55.108Z,2.05
2022-08-25T13:42:20.186Z,1.95
2022-08-25T13:44:53.861Z,2.47
2022-08-25T13:47:43.724Z,1.92
2022-08-25T13:53:05.186Z,2.03
2022-08-25T13:55:38.286Z,1.88
2022-08-25T13:58:24.235Z,2.03
2022-08-25T14:03:36.256Z,1.80
2022-08-25T14:06:04.682Z,2.13
2022-08-25T14:08:32.420Z,1.90
2022-08-25T14:11:05.276Z,2.00
2022-08-25T14:13:31.599Z,2.10
2022-08-25T14:16:06.242Z,1.80
2022-08-25T14:18:31.986Z,2.00
2022-08-25T14:21:01.238Z,2.40
2022-08-25T14:23:28.911Z,1.95
2022-08-25T14:25:55.695Z,2.08
2022-08-25T14:28:22.749Z,1.60
2022-08-25T14:30:51.810Z,2.10
2022-08-25T14:33:19.793Z,1.92
2022-08-25T14:35:47.492Z,1.63
2022-08-25T14:38:13.210Z,1.80
2022-08-25T14:40:38.840Z,2.13
2022-08-25T14:43:05.630Z,1.83
2022-08-25T14:45:38.155Z,1.90
2022-08-25T14:48:10.590Z,1.80
2022-08-25T14:50:36.929Z,1.90
2022-08-25T14:53:02.636Z,2.00
2022-08-25T14:55:31.666Z,1.85
2022-08-25T14:57:58.150Z,1.85
2022-08-25T15:00:24.617Z,1.90
2022-08-25T15:02:51.832Z,1.65
2022-08-25T15:05:23.515Z,1.95
2022-08-25T15:08:10.235Z,1.58
2022-08-25T15:10:38.325Z,1.80
2022-08-25T15:13:05.346Z,1.95
2022-08-25T15:15:32.093Z,1.73
2022-08-25T15:18:00.924Z,1.85
2022-08-25T15:20:26.906Z,1.75
2022-08-25T15:22:52.374Z,1.83
2022-08-25T15:25:17.902Z,1.63
2022-08-25T15:27:43.773Z,2.03
2022-08-25T15:30:09.738Z,1.83
2022-08-25T15:32:38.685Z,1.70
2022-08-25T15:35:06.060Z,1.80
2022-08-25T15:37:32.092Z,1.67
2022-08-25T15:39:57.683Z,1.75
2022-08-25T15:42:25.293Z,1.95
2022-08-25T15:44:53.228Z,1.80
2022-08-25T15:47:19.301Z,1.85
2022-08-25T15:49:44.845Z,1.52
2022-08-25T15:52:12.643Z,2.00
2022-08-25T15:54:38.157Z,1.70
2022-08-25T15:57:04.234Z,1.80
2022-08-25T15:59:34.885Z,1.80
2022-08-25T16:02:00.514Z,1.63
2022-08-25T16:04:26.973Z,1.80
2022-08-25T16:06:53.357Z,1.60
2022-08-25T16:09:22.928Z,1.40
2022-08-25T16:11:55.683Z,1.70
2022-08-25T16:14:23.524Z,1.88
2022-08-25T16:16:49.317Z,1.60
2022-08-25T16:19:14.843Z,1.60
2022-08-25T16:21:42.034Z,1.52
2022-08-25T16:24:12.474Z,1.77
2022-08-25T16:26:48.293Z,1.60
2022-08-25T16:29:14.786Z,1.80
2022-08-25T16:31:40.725Z,1.60
2022-08-25T16:34:06.731Z,1.90
2022-08-25T16:36:32.232Z,1.52
2022-08-25T16:38:57.829Z,1.83
2022-08-25T16:41:26.295Z,1.85
2022-08-25T16:43:52.598Z,1.45
2022-08-25T16:46:19.714Z,1.80
2022-08-25T16:48:45.499Z,1.80
2022-08-25T16:51:12.616Z,1.70
2022-08-25T16:54:00.004Z,1.70
2022-08-25T16:56:27.326Z,1.55
2022-08-25T16:58:54.413Z,1.90
2022-08-25T17:01:21.241Z,1.60
2022-08-25T17:03:47.426Z,1.60
2022-08-25T17:06:13.370Z,1.92
2022-08-25T17:08:39.541Z,1.50
2022-08-25T17:11:06.947Z,1.55
2022-08-25T17:13:33.318Z,1.45
2022-08-25T17:16:02.551Z,1.55
2022-08-25T17:18:28.842Z,1.70
2022-08-25T17:21:12.486Z,1.73
2022-08-25T17:23:45.118Z,1.80
2022-08-25T17:26:14.702Z,1.65
2022-08-25T17:28:40.961Z,1.65
2022-08-25T17:31:07.040Z,2.03
2022-08-25T17:33:33.862Z,1.80
2022-08-25T17:35:59.577Z,1.70
2022-08-25T17:38:26.062Z,1.48
2022-08-25T17:40:53.285Z,1.85
2022-08-25T17:43:19.386Z,1.52
2022-08-25T17:45:44.925Z,1.38
2022-08-25T17:48:12.022Z,1.63
2022-08-25T17:50:38.222Z,1.70
2022-08-25T17:53:04.413Z,1.63
2022-08-25T17:55:30.030Z,1.83
2022-08-25T17:57:55.617Z,2.03
2022-08-25T18:00:21.880Z,1.50
2022-08-25T18:02:47.757Z,1.58
2022-08-25T18:05:14.533Z,1.70
2022-08-25T18:07:40.633Z,1.92
2022-08-25T18:10:09.814Z,1.80
2022-08-25T18:12:35.727Z,1.70
2022-08-25T18:15:01.267Z,1.40
2022-08-25T18:17:27.510Z,1.50
2022-08-25T18:19:54.561Z,1.73
2022-08-25T18:22:20.054Z,1.45
2022-08-25T18:24:46.107Z,1.92
2022-08-25T18:27:12.700Z,1.55
2022-08-25T18:29:40.550Z,1.67
2022-08-25T18:32:06.379Z,1.85
2022-08-25T18:34:32.958Z,1.83
2022-08-25T18:37:21.951Z,1.75
2022-08-25T18:40:09.173Z,1.70
2022-08-25T18:42:35.474Z,1.73
2022-08-25T18:45:01.805Z,1.70
2022-08-25T18:47:27.463Z,1.60
2022-08-25T18:49:53.501Z,1.80
2022-08-25T18:52:19.070Z,1.50
2022-08-25T18:54:46.465Z,1.65
2022-08-25T18:57:14.355Z,1.70
2022-08-25T18:59:39.960Z,1.63
2022-08-25T19:02:06.721Z,1.70
2022-08-25T19:04:32.700Z,1.60
2022-08-25T19:06:59.283Z,1.30
2022-08-25T19:09:24.800Z,1.60
2022-08-25T19:11:51.513Z,1.30
2022-08-25T19:14:20.275Z,1.77
2022-08-25T19:16:45.838Z,1.80
2022-08-25T19:19:12.305Z,1.40
2022-08-25T19:21:38.678Z,1.80
2022-08-25T19:24:04.856Z,1.63
2022-08-25T19:26:32.422Z,1.77
2022-08-25T19:28:58.032Z,1.60
2022-08-25T19:31:24.698Z,1.67
2022-08-25T19:33:52.599Z,1.80
2022-08-25T19:36:22.929Z,1.50
2022-08-25T19:38:48.783Z,1.63
2022-08-25T19:41:17.820Z,1.55
2022-08-25T19:43:55.786Z,1.52
2022-08-25T19:46:25.093Z,1.83
2022-08-25T19:48:50.668Z,1.60
2022-08-25T19:51:19.421Z,1.65
2022-08-25T19:53:52.311Z,1.50
2022-08-25T19:56:20.345Z,1.75
2022-08-25T19:58:45.818Z,1.63
2022-08-25T20:01:12.972Z,1.52
2022-08-25T20:03:43.715Z,1.67
2022-08-25T20:06:09.198Z,1.58
2022-08-25T20:08:36.498Z,1.55
2022-08-25T20:11:02.256Z,1.90
2022-08-25T20:13:27.726Z,1.60
2022-08-25T20:15:53.245Z,1.40
2022-08-25T20:18:24.150Z,1.48
2022-08-25T20:20:49.728Z,1.83
2022-08-25T20:23:35.710Z,1.38
2022-08-25T20:26:02.363Z,1.60
2022-08-25T20:28:27.914Z,1.40
2022-08-25T20:30:53.425Z,1.30
2022-08-25T20:33:20.070Z,1.60
2022-08-25T20:35:48.960Z,1.50
2022-08-25T20:38:14.489Z,1.70
2022-08-25T20:40:41.064Z,1.63
2022-08-25T20:43:10.496Z,1.35
2022-08-25T20:45:38.277Z,1.60
2022-08-25T20:48:03.941Z,1.67
2022-08-25T20:50:30.158Z,1.45
2022-08-25T20:52:57.457Z,1.30
2022-08-25T20:55:23.126Z,1.30
2022-08-25T20:57:48.651Z,1.50
2022-08-25T21:00:15.354Z,1.60
2022-08-25T21:02:40.984Z,1.70
2022-08-25T21:05:07.425Z,1.50
2022-08-25T21:07:35.736Z,1.50
2022-08-25T21:10:01.844Z,1.63
2022-08-25T21:12:27.498Z,1.38
2022-08-25T21:14:53.004Z,1.63
2022-08-25T21:17:19.229Z,1.40
2022-08-25T21:19:45.449Z,1.50
2022-08-25T21:22:10.990Z,1.65
2022-08-25T21:24:36.910Z,1.42
2022-08-25T21:27:03.116Z,1.80
2022-08-25T21:29:31.745Z,1.50
2022-08-25T21:31:58.357Z,1.20
2022-08-25T21:34:23.898Z,1.20
2022-08-25T21:36:50.134Z,1.60
2022-08-25T21:39:15.976Z,1.50
2022-08-25T21:41:43.322Z,1.17
2022-08-25T21:44:11.330Z,1.60
2022-08-25T21:46:37.351Z,1.73
2022-08-25T21:49:06.269Z,1.63
2022-08-25T21:51:33.722Z,1.33
2022-08-25T21:54:15.410Z,1.80
2022-08-25T21:56:49.702Z,1.50
2022-08-25T21:59:16.801Z,1.27
2022-08-25T22:01:42.597Z,1.30
2022-08-25T22:04:09.431Z,1.83
2022-08-25T22:06:35.230Z,1.58
2022-08-25T22:09:01.607Z,1.50
2022-08-25T22:11:27.608Z,1.50
2022-08-25T22:13:57.679Z,1.50
2022-08-25T22:16:26.325Z,1.27
2022-08-25T22:18:52.134Z,1.40
2022-08-25T22:21:18.745Z,1.35
2022-08-25T22:23:44.672Z,1.50
2022-08-25T22:26:10.909Z,1.40
2022-08-25T22:28:36.722Z,1.60
2022-08-25T22:31:03.673Z,1.40
2022-08-25T22:33:29.416Z,1.30
2022-08-25T22:35:59.859Z,1.45
2022-08-25T22:38:25.629Z,1.30
2022-08-25T22:40:51.106Z,1.52
2022-08-25T22:43:16.806Z,1.52
2022-08-25T22:45:42.437Z,1.40
2022-08-25T22:48:08.003Z,1.50
2022-08-25T22:50:34.122Z,1.30
2022-08-25T22:52:59.687Z,1.45
2022-08-25T22:55:28.144Z,1.75
2022-08-25T22:57:54.714Z,1.42
2022-08-25T23:00:20.514Z,1.48
2022-08-25T23:02:46.202Z,1.60
2022-08-25T23:05:12.805Z,1.30
2022-08-25T23:07:39.240Z,1.52
2022-08-25T23:10:07.320Z,1.42
2022-08-25T23:12:32.850Z,1.45
2022-08-25T23:14:59.200Z,1.67
2022-08-25T23:17:24.768Z,1.30
2022-08-25T23:19:50.293Z,1.50
2022-08-25T23:22:16.688Z,1.35
2022-08-25T23:24:44.892Z,1.58
2022-08-25T23:27:12.561Z,1.38
2022-08-25T23:29:39.790Z,1.50
2022-08-25T23:32:06.536Z,1.38
2022-08-25T23:34:34.006Z,1.40
2022-08-25T23:36:59.549Z,1.40
2022-08-25T23:39:25.149Z,1.60
2022-08-25T23:41:50.846Z,1.42
2022-08-25T23:44:18.578Z,1.55
2022-08-25T23:46:45.039Z,1.42
2022-08-25T23:49:11.414Z,1.65
2022-08-25T23:51:38.088Z,1.40
2022-08-25T23:54:05.091Z,1.20
2022-08-25T23:56:31.641Z,1.65
2022-08-25T23:58:57.527Z,1.25
